This is the latest recevied weather packets stored in our database for station/object KN4QD-13. If no packets are shown the sender has not sent any weather packets the latest 10 day(s).
| Time | Temp. | Humidity | Pressure | Rain* | Wind** | Luminosity | Snow |
|---|---|---|---|---|---|---|---|
| 1777805537 | 2.22° C | 86% | 1016.5 hPa | 0 mm | - | - | - |
| 1777804937 | 2.22° C | 85% | 1016.6 hPa | 0 mm | - | - | - |
| 1777789936 | 3.89° C | 77% | 1015.4 hPa | 0 mm | - | - | - |
| 1777789356 | 3.89° C | 77% | 1014.9 hPa | 0 mm | - | - | - |
| 1777786336 | 4.44° C | 76% | 1015.3 hPa | 0 mm | - | - | - |
| 1777785736 | 4.44° C | 75% | 1015.3 hPa | 0 mm | - | - | - |
| 1777780936 | 4.44° C | 73% | 1014.6 hPa | 0 mm | - | - | - |
| 1777773736 | 5.56° C | 69% | 1013 hPa | 0 mm | - | - | - |
| 1777771336 | 5.56° C | 68% | 1012.7 hPa | 0 mm | - | - | - |
| 1777765936 | 7.78° C | 60% | 1011.7 hPa | 0 mm | - | - | - |
| 1777758136 | 11.11° C | 49% | 1010.9 hPa | 0 mm | - | - | - |
| 1777757536 | 11.11° C | 46% | 1010.6 hPa | 0 mm | - | - | - |
| 1777756336 | 11.67° C | 46% | 1010.3 hPa | 0 mm | - | - | - |
| 1777755136 | 12.22° C | 49% | 1010.4 hPa | 0 mm | - | - | - |
| 1777750356 | 12.78° C | 56% | 1010.8 hPa | 0 mm | - | - | - |
| 1777749136 | 12.78° C | 55% | 1010.9 hPa | 0 mm | - | - | - |
| 1777740135 | 11.67° C | 63% | 1011.7 hPa | 0 mm | - | - | - |
| 1777732955 | 8.89° C | 77% | 1011.7 hPa | 0 mm | - | - | - |
| 1777732335 | 8.89° C | 79% | 1011.6 hPa | 0 mm | - | - | - |
| 1777724537 | 7.78° C | 84% | 1011.6 hPa | 0 mm | - | - | - |
| 1777722137 | 7.22° C | 86% | 1011.5 hPa | 0 mm | - | - | - |
| 1777720937 | 7.22° C | 86% | 1011.2 hPa | 0 mm | - | - | - |
| 1777719737 | 7.22° C | 85% | 1010.7 hPa | 0 mm | - | - | - |
| 1777708337 | 8.89° C | 79% | 1012.4 hPa | 0 mm | - | - | - |
| 1777705357 | 8.89° C | 76% | 1012.3 hPa | 0 mm | - | - | - |
* Rain latest hour (hover to see other rain measurements)
** Current wind speed in m/s (hover to see current wind gust speed)